Time;durP1;ratioP1;P1;durP2;ratioP2;P2;SDS_P1;SDS_P2;PMS_P1;PMS_P2;Temp;Humidity;BMP_temperature;BMP_pressure;BME280_temperature;BME280_humidity;BME280_pressure;Samples;Min_cycle;Max_cycle;Signal;HPM_P1;HPM_P2
2022/10/14 00:01:15;;;;;;;38.60;25.27;;;;;;;11.43;100.00;100921.75;5024621;28;20049;-86
2022/10/14 00:03:41;;;;;;;33.65;25.08;;;;;;;11.38;100.00;100918.75;5023512;28;20033;-87
2022/10/14 00:06:19;;;;;;;33.28;24.55;;;;;;;11.30;100.00;100918.63;5033117;28;20456;-86
2022/10/14 00:08:46;;;;;;;32.63;24.40;;;;;;;11.26;100.00;100931.13;5022933;28;20563;-87
2022/10/14 00:11:18;;;;;;;32.03;22.92;;;;;;;11.27;100.00;100926.75;5028203;28;20462;-87
2022/10/14 00:13:43;;;;;;;31.48;22.20;;;;;;;11.24;100.00;100927.84;5022663;28;20029;-87
2022/10/14 00:16:37;;;;;;;33.15;23.20;;;;;;;11.20;100.00;100929.06;5027852;28;20060;-87
2022/10/14 00:19:03;;;;;;;33.05;23.50;;;;;;;11.16;100.00;100924.25;5021279;28;20045;-86
2022/10/14 00:21:29;;;;;;;34.92;22.73;;;;;;;11.15;100.00;100922.63;5026271;28;20124;-87
2022/10/14 00:23:54;;;;;;;33.95;25.13;;;;;;;11.18;100.00;100917.94;5023686;28;20469;-87
2022/10/14 00:26:23;;;;;;;31.48;23.45;;;;;;;11.18;100.00;100917.13;5020861;28;20112;-86
2022/10/14 00:28:49;;;;;;;30.27;22.42;;;;;;;11.14;100.00;100913.97;5022097;28;20068;-84
2022/10/14 00:31:15;;;;;;;34.63;24.58;;;;;;;11.10;100.00;100904.75;5021926;28;20034;-88
2022/10/14 00:33:41;;;;;;;37.55;23.58;;;;;;;11.14;100.00;100906.13;5019617;28;20064;-88
2022/10/14 00:36:07;;;;;;;33.05;23.83;;;;;;;11.15;100.00;100899.13;5024201;28;20029;-88
2022/10/14 00:38:34;;;;;;;32.35;24.10;;;;;;;11.15;100.00;100888.72;5024201;28;20029;-88
2022/10/14 00:41:00;;;;;;;33.15;24.40;;;;;;;11.17;100.00;100889.41;5030817;28;20091;-86
2022/10/14 00:43:27;;;;;;;33.55;24.17;;;;;;;11.22;100.00;100893.25;5023073;28;20081;-86
2022/10/14 00:45:52;;;;;;;36.20;23.38;;;;;;;11.27;100.00;100879.78;5023903;28;20094;-86
2022/10/14 00:48:20;;;;;;;33.05;23.05;;;;;;;11.29;100.00;100886.50;5024073;28;20029;-86
2022/10/14 00:50:49;;;;;;;31.48;23.63;;;;;;;11.28;100.00;100881.44;5026557;28;20265;-86
2022/10/14 00:53:15;;;;;;;34.47;23.63;;;;;;;11.22;100.00;100880.19;5023913;28;20030;-86
2022/10/14 00:55:41;;;;;;;30.02;22.80;;;;;;;11.16;100.00;100883.34;5025548;28;20026;-86
2022/10/14 00:58:08;;;;;;;30.65;22.73;;;;;;;11.07;100.00;100883.34;5024157;28;20417;-86
2022/10/14 01:00:34;;;;;;;31.23;24.33;;;;;;;11.00;100.00;100883.06;5022820;28;20025;-86
2022/10/14 01:03:05;;;;;;;32.63;24.52;;;;;;;10.94;100.00;100879.22;5020267;28;20339;-86
2022/10/14 01:05:37;;;;;;;33.03;23.85;;;;;;;10.88;100.00;100884.97;5021162;28;20067;-86
2022/10/14 01:08:15;;;;;;;36.53;25.15;;;;;;;10.88;100.00;100882.38;5023218;28;20046;-86
2022/10/14 01:11:06;;;;;;;31.70;23.17;;;;;;;10.84;100.00;100881.03;5025266;28;20096;-86
2022/10/14 01:13:39;;;;;;;33.40;23.52;;;;;;;10.82;100.00;100872.53;5020570;28;20036;-86
2022/10/14 01:16:16;;;;;;;34.40;25.10;;;;;;;10.78;100.00;100872.94;5022986;28;20044;-86
2022/10/14 01:18:57;;;;;;;36.55;24.55;;;;;;;10.76;100.00;100874.84;5021063;28;20431;-87
2022/10/14 01:21:38;;;;;;;38.13;26.25;;;;;;;10.78;100.00;100863.31;5022900;28;20121;-86
2022/10/14 01:24:16;;;;;;;34.78;23.75;;;;;;;10.72;100.00;100866.47;5038073;28;20064;-86
2022/10/14 01:27:09;;;;;;;36.15;24.00;;;;;;;10.67;100.00;100860.84;5022992;28;20032;-87
2022/10/14 01:29:53;;;;;;;34.00;24.52;;;;;;;10.71;100.00;100857.00;5031931;28;20551;-86
2022/10/14 01:32:23;;;;;;;38.20;26.23;;;;;;;10.73;100.00;100849.06;5069084;28;20105;-86
2022/10/14 01:35:12;;;;;;;38.92;25.88;;;;;;;10.67;100.00;100842.59;5032044;28;20504;-86
2022/10/14 01:37:45;;;;;;;39.75;26.45;;;;;;;10.69;100.00;100832.88;5022245;28;20570;-87
2022/10/14 01:40:18;;;;;;;36.80;25.77;;;;;;;10.68;100.00;100835.59;5028423;28;20037;-85
2022/10/14 01:42:45;;;;;;;33.00;23.83;;;;;;;10.68;100.00;100830.38;5023335;28;20515;-86
2022/10/14 01:45:17;;;;;;;34.20;24.70;;;;;;;10.66;100.00;100827.91;5027593;28;20052;-87
2022/10/14 01:47:47;;;;;;;33.25;24.65;;;;;;;10.62;100.00;100819.56;5027578;28;20068;-87
2022/10/14 01:50:15;;;;;;;35.22;25.80;;;;;;;10.57;100.00;100819.13;5025436;28;20021;-86
2022/10/14 01:52:51;;;;;;;36.78;25.75;;;;;;;10.51;100.00;100822.28;5028344;28;20489;-86
2022/10/14 01:55:22;;;;;;;36.17;24.55;;;;;;;10.51;100.00;100813.63;5028561;28;20576;-86
2022/10/14 01:57:51;;;;;;;36.13;25.65;;;;;;;10.44;100.00;100817.75;5024636;28;20120;-86
2022/10/14 02:00:16;;;;;;;35.10;25.08;;;;;;;10.40;100.00;100819.00;5027586;28;20127;-86
2022/10/14 02:02:42;;;;;;;34.67;25.30;;;;;;;10.38;100.00;100818.31;5026897;28;20033;-86
2022/10/14 02:05:25;;;;;;;37.97;25.75;;;;;;;10.41;100.00;100815.41;5024084;28;20057;-86
2022/10/14 02:08:18;;;;;;;37.55;26.00;;;;;;;10.38;100.00;100810.50;5025411;28;20120;-86
2022/10/14 02:11:03;;;;;;;37.22;25.52;;;;;;;10.38;100.00;100807.88;5029338;28;20485;-86
2022/10/14 02:13:37;;;;;;;36.57;25.03;;;;;;;10.39;100.00;100806.94;5028300;28;20037;-86
2022/10/14 02:16:53;;;;;;;36.75;25.67;;;;;;;10.34;100.00;100809.09;5026705;28;20124;-86
2022/10/14 02:19:32;;;;;;;33.42;23.08;;;;;;;10.32;100.00;100806.63;5002320;28;20515;-86
2022/10/14 02:22:15;;;;;;;34.58;24.88;;;;;;;10.29;100.00;100799.09;5004284;28;20046;-86
2022/10/14 02:24:45;;;;;;;35.03;25.02;;;;;;;10.31;100.00;100802.38;4989173;28;20505;-86
2022/10/14 02:27:16;;;;;;;33.92;24.17;;;;;;;10.28;100.00;100800.06;5005233;28;20049;-87
2022/10/14 02:29:44;;;;;;;35.13;24.95;;;;;;;10.26;100.00;100805.38;5005486;28;20215;-86
2022/10/14 02:32:11;;;;;;;36.55;26.48;;;;;;;10.22;100.00;100791.00;5002744;28;20042;-86
2022/10/14 02:34:39;;;;;;;35.70;24.73;;;;;;;10.24;100.00;100794.28;4991157;28;20133;-87
2022/10/14 02:37:06;;;;;;;36.90;25.75;;;;;;;10.26;100.00;100791.53;5004450;28;20045;-87
2022/10/14 02:39:38;;;;;;;37.50;25.65;;;;;;;10.24;100.00;100785.66;5003791;28;20064;-86
2022/10/14 02:42:05;;;;;;;33.40;23.90;;;;;;;10.19;100.00;100787.78;5268766;22;20068;-84
2022/10/14 02:44:30;;;;;;;43.05;25.98;;;;;;;10.16;100.00;100783.69;5048543;28;20095;-85
2022/10/14 02:46:56;;;;;;;37.00;25.23;;;;;;;10.18;100.00;100786.97;5030474;28;20033;-85
2022/10/14 02:49:21;;;;;;;38.28;25.70;;;;;;;10.16;100.00;100788.06;5048713;28;20341;-85
2022/10/14 02:51:47;;;;;;;41.28;27.65;;;;;;;10.13;100.00;100786.56;5049673;28;20483;-85
2022/10/14 02:54:12;;;;;;;41.40;28.10;;;;;;;10.10;100.00;100792.03;5048977;28;20028;-85
2022/10/14 02:56:38;;;;;;;42.83;28.17;;;;;;;10.14;100.00;100789.97;5031553;28;20083;-85
2022/10/14 02:59:03;;;;;;;34.83;26.17;;;;;;;10.16;100.00;100799.31;5031131;28;20021;-85
2022/10/14 03:01:29;;;;;;;42.65;26.73;;;;;;;10.14;100.00;100805.59;5049294;28;20051;-85
2022/10/14 03:03:54;;;;;;;38.08;26.63;;;;;;;10.12;100.00;100808.34;5053319;28;20024;-86
2022/10/14 03:06:20;;;;;;;35.25;25.35;;;;;;;10.09;100.00;100806.00;5074782;28;20087;-85
2022/10/14 03:08:45;;;;;;;36.88;26.27;;;;;;;10.02;100.00;100804.88;5066597;28;20043;-85
2022/10/14 03:11:11;;;;;;;41.58;26.98;;;;;;;10.04;100.00;100799.53;5049730;28;20517;-85
2022/10/14 03:13:36;;;;;;;37.58;25.50;;;;;;;10.01;100.00;100799.81;5048719;28;20134;-85
2022/10/14 03:16:02;;;;;;;36.85;25.98;;;;;;;10.01;100.00;100803.22;5031932;28;20025;-84
2022/10/14 03:18:27;;;;;;;43.85;26.70;;;;;;;9.98;100.00;100806.09;5049405;28;20472;-84
2022/10/14 03:20:53;;;;;;;44.28;28.60;;;;;;;9.96;100.00;100805.41;5049327;28;20029;-84
2022/10/14 03:23:18;;;;;;;40.03;27.38;;;;;;;9.94;100.00;100813.34;5048782;28;20024;-85
2022/10/14 03:25:44;;;;;;;41.50;29.33;;;;;;;9.92;100.00;100804.84;5048198;28;20033;-85
2022/10/14 03:28:10;;;;;;;43.78;29.15;;;;;;;9.92;100.00;100801.44;5030542;28;20115;-85
2022/10/14 03:30:36;;;;;;;36.83;27.38;;;;;;;9.93;100.00;100805.66;5049183;28;20032;-85
2022/10/14 03:33:01;;;;;;;34.67;25.27;;;;;;;9.93;100.00;100801.28;5048458;28;20443;-85
2022/10/14 03:35:27;;;;;;;43.22;28.58;;;;;;;9.91;100.00;100807.59;5049151;28;20071;-85
2022/10/14 03:37:53;;;;;;;40.42;28.60;;;;;;;9.86;100.00;100797.59;5030714;28;20028;-85
2022/10/14 03:40:19;;;;;;;41.75;28.02;;;;;;;9.85;100.00;100810.72;5048836;28;20079;-84
2022/10/14 03:42:44;;;;;;;38.67;26.85;;;;;;;9.86;100.00;100807.19;5030094;28;20049;-84
2022/10/14 03:45:10;;;;;;;44.50;29.98;;;;;;;9.85;100.00;100808.13;5048206;28;20021;-85
2022/10/14 03:47:36;;;;;;;41.58;28.58;;;;;;;9.84;100.00;100803.88;5047779;28;20037;-85
2022/10/14 03:50:03;;;;;;;41.67;28.85;;;;;;;9.84;100.00;100809.09;5047289;28;20384;-85
2022/10/14 03:52:30;;;;;;;45.58;28.20;;;;;;;9.79;100.00;100798.25;5047606;28;20044;-84
2022/10/14 03:54:55;;;;;;;46.30;30.70;;;;;;;9.78;100.00;100807.00;5047743;28;20497;-85
2022/10/14 03:57:20;;;;;;;46.03;30.27;;;;;;;9.75;100.00;100802.88;5047763;28;20120;-85
2022/10/14 03:59:46;;;;;;;44.65;28.88;;;;;;;9.77;100.00;100802.75;5048284;28;20434;-85
2022/10/14 04:02:11;;;;;;;50.15;31.58;;;;;;;9.80;100.00;100799.88;5047548;28;20037;-86
2022/10/14 04:04:37;;;;;;;48.20;31.05;;;;;;;9.88;100.00;100794.84;5045051;28;20047;-86
2022/10/14 04:07:02;;;;;;;47.38;30.90;;;;;;;9.91;100.00;100794.59;5027109;28;20044;-86
2022/10/14 04:09:28;;;;;;;46.20;31.33;;;;;;;9.90;100.00;100795.53;5043375;28;20036;-86
2022/10/14 04:11:55;;;;;;;43.50;28.92;;;;;;;9.91;100.00;100799.78;5045159;28;20082;-85
2022/10/14 04:14:22;;;;;;;48.00;28.77;;;;;;;9.89;100.00;100797.31;5025555;28;20028;-85
2022/10/14 04:16:47;;;;;;;43.28;29.20;;;;;;;9.88;100.00;100794.84;5044034;28;20044;-84
2022/10/14 04:19:12;;;;;;;42.47;29.23;;;;;;;9.86;100.00;100794.16;5019413;28;20063;-85
2022/10/14 04:21:38;;;;;;;47.78;29.00;;;;;;;9.84;100.00;100793.47;5045823;28;20033;-85
2022/10/14 04:24:03;;;;;;;48.80;31.20;;;;;;;9.82;100.00;100795.38;5045422;28;20498;-85
2022/10/14 04:26:29;;;;;;;41.50;29.13;;;;;;;9.82;100.00;100787.56;5045530;28;20051;-85
2022/10/14 04:28:54;;;;;;;45.90;29.10;;;;;;;9.84;100.00;100789.09;5047148;28;20408;-85
2022/10/14 04:31:21;;;;;;;49.20;31.33;;;;;;;9.83;100.00;100786.63;5029334;28;20041;-84
2022/10/14 04:33:47;;;;;;;49.85;30.98;;;;;;;9.82;100.00;100788.38;5047541;28;20112;-84
2022/10/14 04:36:12;;;;;;;46.47;31.95;;;;;;;9.85;100.00;100787.31;5045043;28;20131;-85
2022/10/14 04:38:38;;;;;;;46.92;31.63;;;;;;;9.85;100.00;100784.72;5046656;28;20041;-85
2022/10/14 04:41:03;;;;;;;48.45;32.15;;;;;;;9.92;100.00;100783.22;5046037;28;20033;-85
2022/10/14 04:43:29;;;;;;;46.47;30.58;;;;;;;9.91;100.00;100784.19;5047086;28;20060;-85
2022/10/14 04:45:54;;;;;;;49.28;31.48;;;;;;;9.90;100.00;100795.53;5044576;28;20090;-84
2022/10/14 04:48:19;;;;;;;46.13;31.83;;;;;;;9.91;100.00;100784.19;5044056;28;20025;-84
2022/10/14 04:50:45;;;;;;;52.58;33.70;;;;;;;9.92;100.00;100781.41;5045655;28;20025;-84
2022/10/14 04:53:10;;;;;;;47.25;32.25;;;;;;;9.93;100.00;100787.44;5043550;28;20021;-84
2022/10/14 04:55:36;;;;;;;50.15;31.73;;;;;;;10.01;100.00;100794.59;5042865;28;20039;-84
2022/10/14 04:58:02;;;;;;;51.25;33.67;;;;;;;10.34;100.00;100790.88;5020744;28;20418;-84
2022/10/14 05:00:27;;;;;;;54.40;33.53;;;;;;;10.52;100.00;100790.06;5032941;28;20025;-84
2022/10/14 05:02:53;;;;;;;44.58;31.48;;;;;;;10.44;100.00;100782.09;5023247;28;20584;-84
2022/10/14 05:05:18;;;;;;;51.17;31.40;;;;;;;10.36;100.00;100781.97;5049780;28;20116;-84
2022/10/14 05:07:43;;;;;;;46.45;31.17;;;;;;;10.23;100.00;100779.63;5052429;28;20452;-84
2022/10/14 05:10:09;;;;;;;52.47;31.70;;;;;;;10.12;100.00;100784.06;5035103;28;20091;-84
2022/10/14 05:12:37;;;;;;;50.22;31.42;;;;;;;10.07;100.00;100784.47;5052850;28;20029;-84
2022/10/14 05:15:04;;;;;;;46.60;31.92;;;;;;;10.04;100.00;100787.34;5052850;28;20435;-84
2022/10/14 05:17:30;;;;;;;54.13;33.10;;;;;;;10.02;100.00;100789.25;5052236;28;20575;-84
2022/10/14 05:19:55;;;;;;;53.80;32.60;;;;;;;9.98;100.00;100780.06;5053120;28;20040;-85
2022/10/14 05:22:20;;;;;;;50.90;34.65;;;;;;;9.98;100.00;100774.84;5053015;28;20115;-85
2022/10/14 05:24:46;;;;;;;48.00;32.03;;;;;;;9.92;100.00;100776.22;5053224;28;20029;-84
2022/10/14 05:27:11;;;;;;;52.10;34.08;;;;;;;9.90;100.00;100780.75;5052949;28;20351;-84
2022/10/14 05:29:37;;;;;;;47.60;32.10;;;;;;;9.88;100.00;100789.66;5057824;28;20017;-84
2022/10/14 05:32:02;;;;;;;50.22;34.17;;;;;;;9.87;100.00;100777.59;5078922;28;20033;-84
2022/10/14 05:34:27;;;;;;;52.35;34.00;;;;;;;9.87;100.00;100781.03;5055989;28;20043;-84
2022/10/14 05:36:53;;;;;;;52.72;35.10;;;;;;;9.87;100.00;100773.22;5053838;28;20032;-84
2022/10/14 05:39:18;;;;;;;48.17;31.70;;;;;;;9.89;100.00;100776.50;5053617;28;20041;-84
2022/10/14 05:41:44;;;;;;;47.88;33.33;;;;;;;9.86;100.00;100778.53;5029287;28;20055;-84
2022/10/14 05:44:10;;;;;;;51.58;33.72;;;;;;;9.83;100.00;100781.41;5052243;28;20419;-84
2022/10/14 05:46:35;;;;;;;59.13;34.60;;;;;;;9.82;100.00;100795.38;5053804;28;20025;-85
2022/10/14 05:49:04;;;;;;;47.03;32.10;;;;;;;9.88;100.00;100785.25;5051425;28;20169;-84
2022/10/14 05:51:33;;;;;;;50.88;31.30;;;;;;;9.99;100.00;100792.13;5049806;28;20029;-84
2022/10/14 05:53:58;;;;;;;52.63;34.95;;;;;;;9.97;100.00;100784.44;5034303;28;20033;-84
2022/10/14 05:56:24;;;;;;;60.90;35.85;;;;;;;10.00;100.00;100783.34;5034531;28;20048;-84
2022/10/14 05:58:49;;;;;;;57.63;36.65;;;;;;;10.06;100.00;100780.22;5033299;28;20033;-84
2022/10/14 06:01:15;;;;;;;58.03;36.47;;;;;;;10.10;100.00;100779.00;5052296;28;20323;-84
2022/10/14 06:03:40;;;;;;;51.80;35.63;;;;;;;10.17;100.00;100785.31;5049970;28;20029;-84
2022/10/14 06:06:11;;;;;;;51.40;33.55;;;;;;;10.22;100.00;100788.38;5052515;28;20029;-84
2022/10/14 06:08:37;;;;;;;54.55;32.47;;;;;;;10.27;100.00;100781.00;5051226;28;20033;-84
2022/10/14 06:11:03;;;;;;;55.38;34.70;;;;;;;10.30;100.00;100783.34;5033880;28;20454;-84
2022/10/14 06:13:28;;;;;;;57.28;35.65;;;;;;;10.61;100.00;100780.59;5047177;28;20507;-85
2022/10/14 06:15:54;;;;;;;60.00;35.95;;;;;;;10.83;100.00;100771.69;5032627;28;20064;-84
2022/10/14 06:18:19;;;;;;;52.78;35.28;;;;;;;11.02;100.00;100776.03;5031846;28;20025;-84
2022/10/14 06:20:51;;;;;;;53.28;33.15;;;;;;;11.38;100.00;100771.81;5048881;28;20342;-84
2022/10/14 06:23:17;;;;;;;47.25;33.05;;;;;;;11.50;100.00;100763.69;5046714;28;20033;-84
2022/10/14 06:25:42;;;;;;;47.17;33.10;;;;;;;11.75;100.00;100770.06;5049496;28;20045;-84
2022/10/14 06:28:08;;;;;;;44.60;31.73;;;;;;;11.95;100.00;100765.56;5030656;28;20025;-84
2022/10/14 06:30:34;;;;;;;47.47;34.30;;;;;;;12.03;100.00;100773.50;5049133;28;20499;-84
2022/10/14 06:32:59;;;;;;;46.30;32.50;;;;;;;12.04;100.00;100775.13;5044681;28;20433;-84
2022/10/14 06:35:25;;;;;;;51.67;33.25;;;;;;;11.97;100.00;100774.06;5030467;28;20029;-85
2022/10/14 06:37:50;;;;;;;51.53;33.80;;;;;;;11.93;100.00;100777.94;5049203;28;20035;-85
2022/10/14 06:40:16;;;;;;;48.80;33.47;;;;;;;11.95;100.00;100784.66;5045210;28;20044;-85
2022/10/14 06:42:41;;;;;;;52.35;34.85;;;;;;;12.07;100.00;100780.06;5048826;28;20036;-84
2022/10/14 06:45:07;;;;;;;59.80;34.40;;;;;;;12.23;100.00;100801.16;5047563;28;20099;-84
2022/10/14 06:47:32;;;;;;;58.00;35.53;;;;;;;12.36;100.00;100795.53;5046939;28;20025;-83
2022/10/14 06:49:57;;;;;;;47.53;34.17;;;;;;;12.45;100.00;100791.22;5032741;28;20111;-84
2022/10/14 06:52:23;;;;;;;50.65;34.38;;;;;;;12.54;100.00;100792.97;5031418;28;20515;-84
2022/10/14 06:54:49;;;;;;;42.58;32.28;;;;;;;12.67;100.00;100793.41;5045153;28;20392;-83
2022/10/14 06:57:15;;;;;;;45.92;31.65;;;;;;;12.73;100.00;100795.44;5049560;28;20033;-83
2022/10/14 06:59:40;;;;;;;49.97;33.08;;;;;;;12.74;100.00;100791.84;5051922;28;20044;-84
2022/10/14 07:02:06;;;;;;;49.92;32.88;;;;;;;12.74;100.00;100798.88;5032996;28;20081;-81
2022/10/14 07:04:31;;;;;;;50.72;34.58;;;;;;;12.75;100.00;100803.13;5043118;28;20545;-81
2022/10/14 07:06:57;;;;;;;47.88;31.85;;;;;;;12.76;100.00;100799.53;5047206;28;20036;-82
2022/10/14 07:09:23;;;;;;;42.30;31.52;;;;;;;12.94;100.00;100795.91;5046909;28;20091;-81
2022/10/14 07:11:49;;;;;;;42.28;29.45;;;;;;;13.06;100.00;100801.72;5047665;28;20043;-81
2022/10/14 07:14:14;;;;;;;42.20;30.88;;;;;;;13.16;100.00;100799.06;5044776;28;20066;-80
2022/10/14 07:16:42;;;;;;;44.20;31.80;;;;;;;13.20;100.00;100805.63;5044207;28;20044;-82
2022/10/14 07:19:08;;;;;;;48.53;31.65;;;;;;;13.29;100.00;100805.50;5044964;28;20115;-81
2022/10/14 07:21:33;;;;;;;45.97;31.90;;;;;;;13.32;100.00;100801.75;5045375;28;20043;-81
2022/10/14 07:23:59;;;;;;;45.47;31.85;;;;;;;13.34;100.00;100812.88;5027221;28;20037;-81
2022/10/14 07:26:24;;;;;;;50.42;32.20;;;;;;;13.47;100.00;100808.06;5041236;28;20512;-82
2022/10/14 07:28:50;;;;;;;48.22;33.25;;;;;;;13.54;100.00;100808.28;5042556;28;20123;-81
2022/10/14 07:31:15;;;;;;;46.20;31.35;;;;;;;13.67;100.00;100818.34;5047774;28;20457;-82
2022/10/14 07:33:41;;;;;;;45.22;30.40;;;;;;;13.81;100.00;100815.94;5047025;28;20095;-82
2022/10/14 07:36:12;;;;;;;49.05;33.58;;;;;;;13.80;100.00;100824.75;5042058;28;20078;-81
2022/10/14 07:38:38;;;;;;;44.15;32.40;;;;;;;13.84;100.00;100825.28;5044247;28;20120;-81
2022/10/14 07:41:15;;;;;;;48.65;33.15;;;;;;;13.84;100.00;100820.84;5045315;28;20447;-81
2022/10/14 07:43:44;;;;;;;44.88;32.15;;;;;;;13.80;100.00;100830.00;5043216;28;20064;-82
2022/10/14 07:46:11;;;;;;;45.83;32.90;;;;;;;13.78;100.00;100833.75;5043853;28;20025;-81
2022/10/14 07:48:37;;;;;;;46.03;30.48;;;;;;;13.84;100.00;100835.75;5046418;28;20120;-82
2022/10/14 07:51:04;;;;;;;44.00;32.05;;;;;;;13.93;100.00;100845.28;5049034;28;20241;-82
2022/10/14 07:53:30;;;;;;;39.88;31.30;;;;;;;14.16;99.91;100840.31;5053633;28;20032;-82
2022/10/14 07:55:57;;;;;;;43.00;31.95;;;;;;;14.31;99.31;100845.75;5072950;28;20021;-81
2022/10/14 07:58:26;;;;;;;42.47;31.08;;;;;;;14.39;99.24;100851.00;5041357;28;20043;-82
2022/10/14 08:00:52;;;;;;;49.65;32.08;;;;;;;14.45;99.06;100850.41;5032659;28;20204;-82
2022/10/14 08:03:19;;;;;;;42.13;31.40;;;;;;;14.51;98.82;100855.03;5048208;28;20028;-82
2022/10/14 08:05:46;;;;;;;44.05;32.80;;;;;;;14.63;97.65;100843.25;5048028;28;20035;-82
2022/10/14 08:08:12;;;;;;;40.80;32.20;;;;;;;14.59;98.36;100857.66;5048314;28;20047;-82
2022/10/14 08:10:39;;;;;;;42.75;30.17;;;;;;;14.64;97.62;100850.13;5046644;28;20419;-81
2022/10/14 08:13:04;;;;;;;44.10;31.15;;;;;;;14.88;95.18;100847.53;5048382;28;20082;-82
2022/10/14 08:15:39;;;;;;;39.03;29.67;;;;;;;14.95;94.53;100850.31;5047152;28;20029;-81
2022/10/14 08:18:06;;;;;;;39.23;30.40;;;;;;;14.99;95.08;100856.88;5042159;28;20040;-81
2022/10/14 08:20:33;;;;;;;36.92;27.92;;;;;;;15.09;93.80;100854.09;5047458;28;20633;-81
2022/10/14 08:22:59;;;;;;;41.33;28.92;;;;;;;15.17;94.22;100862.75;5030094;28;20274;-83
2022/10/14 08:25:25;;;;;;;34.65;27.38;;;;;;;15.18;93.79;100860.97;5045948;28;20219;-81
2022/10/14 08:27:52;;;;;;;36.70;29.05;;;;;;;15.28;93.93;100853.75;5045202;28;20032;-81
2022/10/14 08:30:19;;;;;;;34.55;27.58;;;;;;;15.25;94.03;100854.06;5012089;28;20468;-82
2022/10/14 08:32:45;;;;;;;42.45;28.05;;;;;;;15.51;92.66;100854.72;5047962;28;20032;-82
2022/10/14 08:35:10;;;;;;;35.53;28.25;;;;;;;15.45;92.41;100859.81;5045064;28;20139;-82
2022/10/14 08:37:36;;;;;;;38.42;29.58;;;;;;;15.54;92.73;100857.00;5045162;28;20028;-81
2022/10/14 08:40:02;;;;;;;32.70;26.88;;;;;;;15.69;91.73;100856.31;5047129;28;20043;-81
2022/10/14 08:42:56;;;;;;;36.30;28.13;;;;;;;15.73;90.85;100855.00;5047690;28;20076;-81
2022/10/14 08:45:32;;;;;;;33.72;27.65;;;;;;;15.55;91.91;100861.28;5045193;28;20033;-81
2022/10/14 08:48:03;;;;;;;36.35;27.67;;;;;;;15.50;92.52;100860.94;5046285;28;20530;-81
2022/10/14 08:50:37;;;;;;;31.35;26.95;;;;;;;15.55;91.50;100853.38;5046577;28;20043;-80
2022/10/14 08:53:30;;;;;;;31.45;25.38;;;;;;;15.63;90.42;100854.38;5049072;28;20175;-82
2022/10/14 08:55:59;;;;;;;30.42;24.55;;;;;;;15.79;88.73;100849.06;5046274;28;20499;-82
2022/10/14 08:58:38;;;;;;;31.58;26.40;;;;;;;15.85;87.10;100848.41;5029739;28;20029;-81
2022/10/14 09:01:12;;;;;;;33.33;25.80;;;;;;;15.74;88.51;100843.50;5045076;28;20037;-81
2022/10/14 09:03:37;;;;;;;37.05;29.23;;;;;;;15.67;89.88;100839.91;5026174;28;20499;-81
2022/10/14 09:06:26;;;;;;;32.65;27.17;;;;;;;15.73;89.32;100828.72;5042027;28;20036;-81
2022/10/14 09:08:56;;;;;;;31.73;26.20;;;;;;;15.81;88.45;100829.53;5057605;28;20080;-80
2022/10/14 09:11:23;;;;;;;33.90;27.33;;;;;;;15.93;87.93;100822.09;5059053;28;20454;-80
2022/10/14 09:13:54;;;;;;;30.40;25.98;;;;;;;15.99;86.90;100816.16;5058732;28;20037;-80
2022/10/14 09:16:35;;;;;;;32.33;26.77;;;;;;;16.15;85.55;100817.88;5059388;28;20025;-80
2022/10/14 09:19:13;;;;;;;31.15;25.38;;;;;;;16.14;85.36;100819.69;5055365;28;20085;-81
2022/10/14 09:21:45;;;;;;;35.92;26.88;;;;;;;16.15;86.58;100817.88;5045620;28;20037;-80
2022/10/14 09:24:19;;;;;;;34.20;27.85;;;;;;;16.10;88.29;100815.75;5047456;28;20033;-81
2022/10/14 09:26:47;;;;;;;31.75;26.77;;;;;;;16.11;88.28;100812.16;5045155;28;20041;-80
2022/10/14 09:29:33;;;;;;;36.70;28.98;;;;;;;16.16;89.37;100817.69;5046830;28;20119;-81
2022/10/14 09:32:05;;;;;;;34.30;26.90;;;;;;;16.17;89.37;100814.09;5043050;28;20045;-80
2022/10/14 09:34:39;;;;;;;32.60;26.98;;;;;;;16.20;87.78;100811.13;5046240;28;20346;-80
2022/10/14 09:37:21;;;;;;;34.17;27.75;;;;;;;16.36;88.26;100812.03;5047228;28;20037;-81
2022/10/14 09:39:48;;;;;;;35.90;29.10;;;;;;;16.41;89.03;100804.44;5046849;28;20037;-81
2022/10/14 09:42:20;;;;;;;28.55;25.38;;;;;;;16.47;88.31;100806.38;5043813;28;20447;-81
2022/10/14 09:45:05;;;;;;;35.30;28.08;;;;;;;16.49;87.91;100796.50;5047677;28;20041;-81
2022/10/14 09:47:34;;;;;;;32.83;26.83;;;;;;;16.47;88.90;100803.75;5051667;28;20047;-84
2022/10/14 09:49:59;;;;;;;37.13;27.33;;;;;;;16.44;88.92;100804.09;5050517;28;20079;-84
2022/10/14 09:52:28;;;;;;;32.75;27.17;;;;;;;16.48;88.11;100808.00;5048278;28;20550;-83
2022/10/14 09:54:57;;;;;;;30.45;26.10;;;;;;;16.57;88.08;100813.00;5049788;28;20028;-84
2022/10/14 09:57:24;;;;;;;34.28;28.38;;;;;;;16.63;88.76;100814.13;5048304;28;20037;-83
2022/10/14 09:59:57;;;;;;;31.67;26.45;;;;;;;16.68;87.27;100822.34;5049287;28;20068;-83
2022/10/14 10:02:45;;;;;;;29.08;24.98;;;;;;;16.66;86.68;100816.44;5045653;28;20047;-84
2022/10/14 10:05:25;;;;;;;35.53;25.73;;;;;;;16.67;86.30;100812.81;5049273;28;20111;-84
2022/10/14 10:08:11;;;;;;;28.63;24.10;;;;;;;16.80;84.25;100809.59;5049420;28;20072;-84
2022/10/14 10:10:36;;;;;;;30.20;24.73;;;;;;;16.85;85.15;100813.34;5049460;28;20056;-83
2022/10/14 10:13:02;;;;;;;30.70;25.23;;;;;;;16.92;84.28;100810.84;5046560;28;20492;-84
2022/10/14 10:15:28;;;;;;;31.05;25.38;;;;;;;16.92;84.70;100810.84;5049362;28;20388;-84
2022/10/14 10:17:53;;;;;;;30.58;25.42;;;;;;;16.96;84.87;100819.19;5058881;28;20039;-84
2022/10/14 10:20:19;;;;;;;26.27;23.42;;;;;;;17.00;84.76;100809.94;5072092;28;20045;-84
2022/10/14 10:22:45;;;;;;;24.30;21.70;;;;;;;17.01;84.01;100811.59;5048324;28;20033;-84
2022/10/14 10:25:13;;;;;;;27.40;23.20;;;;;;;17.01;83.15;100806.31;5049528;28;20468;-84
2022/10/14 10:27:44;;;;;;;28.60;24.48;;;;;;;17.07;82.94;100795.03;5016496;28;20044;-83
2022/10/14 10:30:28;;;;;;;26.95;22.85;;;;;;;17.05;80.83;100789.97;5046819;28;20044;-82
2022/10/14 10:33:23;;;;;;;26.40;20.52;;;;;;;17.39;74.03;100789.47;5048224;28;20142;-83
2022/10/14 10:36:17;;;;;;;26.15;22.30;;;;;;;17.45;78.02;100785.31;5047781;28;20448;-85
2022/10/14 10:39:04;;;;;;;26.05;21.98;;;;;;;17.34;77.69;100781.31;5048203;28;20033;-83
2022/10/14 10:41:52;;;;;;;26.25;20.15;;;;;;;17.47;77.76;100780.69;5047231;28;20353;-84
2022/10/14 10:44:29;;;;;;;26.60;22.10;;;;;;;17.50;78.45;100770.56;5045286;28;20527;-84
2022/10/14 10:47:23;;;;;;;28.83;22.00;;;;;;;17.38;78.07;100772.03;5048287;28;20071;-83
2022/10/14 10:50:11;;;;;;;26.85;22.45;;;;;;;17.57;77.18;100768.84;5048081;28;20037;-83
2022/10/14 10:53:09;;;;;;;28.73;23.50;;;;;;;17.76;75.91;100758.78;5045503;28;20169;-83
2022/10/14 10:55:56;;;;;;;27.25;20.20;;;;;;;17.85;75.56;100768.22;5042950;28;20092;-85
2022/10/14 10:58:49;;;;;;;21.02;18.38;;;;;;;17.78;75.06;100754.13;5045201;28;20037;-83
2022/10/14 11:01:47;;;;;;;20.92;18.63;;;;;;;17.75;72.77;100752.69;5029827;28;20056;-83
2022/10/14 11:04:29;;;;;;;22.45;19.10;;;;;;;17.78;72.93;100751.50;5043748;28;20079;-84
2022/10/14 11:13:25;;;;;;;23.42;20.08;;;;;;;17.90;75.19;100735.03;5047529;28;20059;-83
2022/10/14 11:16:15;;;;;;;22.80;20.40;;;;;;;17.87;76.17;100735.41;5033396;28;20102;-84
2022/10/14 11:19:03;;;;;;;23.73;20.00;;;;;;;17.76;76.11;100738.50;5048083;28;20136;-83
2022/10/14 11:21:34;;;;;;;23.17;19.55;;;;;;;17.83;74.67;100733.31;5030225;28;20464;-83
2022/10/14 11:24:44;;;;;;;23.25;18.15;;;;;;;18.11;69.13;100731.59;5047732;28;20151;-83